sensor_id;sensor_type;location;lat;lon;timestamp;pressure;altitude;pressure_sealevel;temperature;humidity
72061;BME280;59925;52.136;5.420;2022-12-07T00:01:26;102039.97;;;2.76;94.70
72061;BME280;59925;52.136;5.420;2022-12-07T00:03:54;102038.97;;;2.77;94.69
72061;BME280;59925;52.136;5.420;2022-12-07T00:06:23;102038.97;;;2.77;94.66
72061;BME280;59925;52.136;5.420;2022-12-07T00:08:49;102036.94;;;2.79;94.91
72061;BME280;59925;52.136;5.420;2022-12-07T00:11:20;102046.53;;;2.80;95.11
72061;BME280;59925;52.136;5.420;2022-12-07T00:13:52;102033.91;;;2.82;95.16
72061;BME280;59925;52.136;5.420;2022-12-07T00:16:19;102044.50;;;2.82;94.97
72061;BME280;59925;52.136;5.420;2022-12-07T00:18:46;102034.91;;;2.81;95.57
72061;BME280;59925;52.136;5.420;2022-12-07T00:21:22;102031.63;;;2.79;95.29
72061;BME280;59925;52.136;5.420;2022-12-07T00:23:50;102034.47;;;2.78;95.11
72061;BME280;59925;52.136;5.420;2022-12-07T00:26:18;102026.75;;;2.76;94.97
72061;BME280;59925;52.136;5.420;2022-12-07T00:28:50;102034.41;;;2.71;95.56
72061;BME280;59925;52.136;5.420;2022-12-07T00:31:18;102029.88;;;2.65;95.38
72061;BME280;59925;52.136;5.420;2022-12-07T00:33:46;102023.31;;;2.60;94.98
72061;BME280;59925;52.136;5.420;2022-12-07T00:36:15;102015.72;;;2.57;95.33
72061;BME280;59925;52.136;5.420;2022-12-07T00:38:42;102021.22;;;2.56;95.12
72061;BME280;59925;52.136;5.420;2022-12-07T00:41:19;102014.28;;;2.55;95.35
72061;BME280;59925;52.136;5.420;2022-12-07T00:43:47;102006.34;;;2.55;95.46
72061;BME280;59925;52.136;5.420;2022-12-07T00:46:15;102005.50;;;2.54;95.33
72061;BME280;59925;52.136;5.420;2022-12-07T00:48:42;102003.06;;;2.53;95.56
72061;BME280;59925;52.136;5.420;2022-12-07T00:51:11;102007.91;;;2.49;95.70
72061;BME280;59925;52.136;5.420;2022-12-07T00:53:38;102016.22;;;2.46;94.93
72061;BME280;59925;52.136;5.420;2022-12-07T00:56:09;102013.94;;;2.43;95.06
72061;BME280;59925;52.136;5.420;2022-12-07T00:58:36;102008.28;;;2.46;95.09
72061;BME280;59925;52.136;5.420;2022-12-07T01:01:04;102010.91;;;2.46;95.39
72061;BME280;59925;52.136;5.420;2022-12-07T01:03:31;102005.44;;;2.48;95.26
72061;BME280;59925;52.136;5.420;2022-12-07T01:05:58;102003.63;;;2.48;95.81
72061;BME280;59925;52.136;5.420;2022-12-07T01:08:25;102005.63;;;2.46;95.64
72061;BME280;59925;52.136;5.420;2022-12-07T01:10:59;102001.97;;;2.47;95.54
72061;BME280;59925;52.136;5.420;2022-12-07T01:13:26;102007.28;;;2.47;95.51
72061;BME280;59925;52.136;5.420;2022-12-07T01:15:57;102004.06;;;2.52;95.21
72061;BME280;59925;52.136;5.420;2022-12-07T01:18:27;102006.16;;;2.56;95.89
72061;BME280;59925;52.136;5.420;2022-12-07T01:21:01;102009.78;;;2.55;95.84
72061;BME280;59925;52.136;5.420;2022-12-07T01:23:29;102009.00;;;2.55;95.85
72061;BME280;59925;52.136;5.420;2022-12-07T01:25:57;102007.34;;;2.54;96.13
72061;BME280;59925;52.136;5.420;2022-12-07T01:28:26;102011.44;;;2.56;95.68
72061;BME280;59925;52.136;5.420;2022-12-07T01:31:04;102007.78;;;2.57;95.79
72061;BME280;59925;52.136;5.420;2022-12-07T01:33:36;102010.63;;;2.56;95.92
72061;BME280;59925;52.136;5.420;2022-12-07T01:36:05;102010.81;;;2.54;96.09
72061;BME280;59925;52.136;5.420;2022-12-07T01:38:33;102007.34;;;2.54;95.27
72061;BME280;59925;52.136;5.420;2022-12-07T01:41:01;102006.91;;;2.50;95.71
72061;BME280;59925;52.136;5.420;2022-12-07T01:43:29;102010.56;;;2.49;95.17
72061;BME280;59925;52.136;5.420;2022-12-07T01:45:56;102008.06;;;2.48;95.22
72061;BME280;59925;52.136;5.420;2022-12-07T01:48:43;102007.63;;;2.44;95.24
72061;BME280;59925;52.136;5.420;2022-12-07T01:51:11;102007.63;;;2.44;95.18
72061;BME280;59925;52.136;5.420;2022-12-07T01:53:43;102009.66;;;2.42;95.16
72061;BME280;59925;52.136;5.420;2022-12-07T01:56:17;102010.19;;;2.37;95.39
72061;BME280;59925;52.136;5.420;2022-12-07T01:58:45;102011.22;;;2.36;95.32
72061;BME280;59925;52.136;5.420;2022-12-07T02:01:11;102007.34;;;2.39;94.97
72061;BME280;59925;52.136;5.420;2022-12-07T02:03:41;102010.00;;;2.39;95.60
72061;BME280;59925;52.136;5.420;2022-12-07T02:06:09;102012.03;;;2.37;94.92
72061;BME280;59925;52.136;5.420;2022-12-07T02:08:36;102009.19;;;2.38;95.24
72061;BME280;59925;52.136;5.420;2022-12-07T02:11:04;102009.75;;;2.34;95.01
72061;BME280;59925;52.136;5.420;2022-12-07T02:13:34;102002.63;;;2.34;95.36
72061;BME280;59925;52.136;5.420;2022-12-07T02:19:14;101998.97;;;2.35;95.39
72061;BME280;59925;52.136;5.420;2022-12-07T02:22:04;102004.34;;;2.42;95.55
72061;BME280;59925;52.136;5.420;2022-12-07T02:24:53;102000.13;;;2.48;95.48
72061;BME280;59925;52.136;5.420;2022-12-07T02:27:47;102005.44;;;2.48;95.73
72061;BME280;59925;52.136;5.420;2022-12-07T02:30:20;102003.63;;;2.48;95.55
72061;BME280;59925;52.136;5.420;2022-12-07T02:32:56;102004.44;;;2.49;95.46
72061;BME280;59925;52.136;5.420;2022-12-07T02:38:03;101996.75;;;2.54;94.89
72061;BME280;59925;52.136;5.420;2022-12-07T02:40:43;101995.56;;;2.56;95.36
72061;BME280;59925;52.136;5.420;2022-12-07T02:43:18;101997.41;;;2.56;95.47
72061;BME280;59925;52.136;5.420;2022-12-07T02:45:47;101994.28;;;2.52;95.66
72061;BME280;59925;52.136;5.420;2022-12-07T02:48:16;101994.28;;;2.52;95.19
72061;BME280;59925;52.136;5.420;2022-12-07T02:50:51;101995.91;;;2.53;94.88
72061;BME280;59925;52.136;5.420;2022-12-07T02:53:35;101993.91;;;2.55;95.08
72061;BME280;59925;52.136;5.420;2022-12-07T02:56:30;101993.75;;;2.57;95.23
72061;BME280;59925;52.136;5.420;2022-12-07T02:59:40;101998.03;;;2.58;94.77
72061;BME280;59925;52.136;5.420;2022-12-07T03:08:13;102001.50;;;2.58;95.27
72061;BME280;59925;52.136;5.420;2022-12-07T03:10:53;102002.13;;;2.60;95.01
72061;BME280;59925;52.136;5.420;2022-12-07T03:19:11;101992.47;;;2.74;95.25
72061;BME280;59925;52.136;5.420;2022-12-07T03:21:49;101987.00;;;2.76;95.18
72061;BME280;59925;52.136;5.420;2022-12-07T03:24:21;101990.66;;;2.75;95.45
72061;BME280;59925;52.136;5.420;2022-12-07T03:26:51;101983.97;;;2.79;95.37
72061;BME280;59925;52.136;5.420;2022-12-07T03:29:28;101984.81;;;2.80;95.56
72061;BME280;59925;52.136;5.420;2022-12-07T03:32:13;101984.97;;;2.78;95.05
72061;BME280;59925;52.136;5.420;2022-12-07T03:34:57;101991.66;;;2.74;95.20
72061;BME280;59925;52.136;5.420;2022-12-07T03:37:33;101977.78;;;2.72;95.23
72061;BME280;59925;52.136;5.420;2022-12-07T03:40:13;101982.66;;;2.68;95.15
72061;BME280;59925;52.136;5.420;2022-12-07T03:42:41;101977.94;;;2.64;94.69
72061;BME280;59925;52.136;5.420;2022-12-07T03:45:08;101971.56;;;2.58;95.01
72061;BME280;59925;52.136;5.420;2022-12-07T03:50:15;101975.50;;;2.47;94.40
72061;BME280;59925;52.136;5.420;2022-12-07T03:52:53;101972.22;;;2.45;94.90
72061;BME280;59925;52.136;5.420;2022-12-07T03:55:29;101979.34;;;2.44;94.98
72061;BME280;59925;52.136;5.420;2022-12-07T03:58:02;101976.50;;;2.46;94.63
72061;BME280;59925;52.136;5.420;2022-12-07T04:00:30;101977.50;;;2.45;94.92
72061;BME280;59925;52.136;5.420;2022-12-07T04:02:57;101976.88;;;2.43;95.24
72061;BME280;59925;52.136;5.420;2022-12-07T04:05:24;101978.06;;;2.40;94.68
72061;BME280;59925;52.136;5.420;2022-12-07T04:07:51;101973.16;;;2.37;94.53
72061;BME280;59925;52.136;5.420;2022-12-07T04:10:17;101970.13;;;2.40;94.42
72061;BME280;59925;52.136;5.420;2022-12-07T04:12:44;101967.28;;;2.42;94.94
72061;BME280;59925;52.136;5.420;2022-12-07T04:15:10;101962.44;;;2.45;95.14
72061;BME280;59925;52.136;5.420;2022-12-07T04:17:37;101964.09;;;2.47;95.14
72061;BME280;59925;52.136;5.420;2022-12-07T04:20:05;101955.97;;;2.48;94.88
72061;BME280;59925;52.136;5.420;2022-12-07T04:22:31;101957.97;;;2.46;94.99
72061;BME280;59925;52.136;5.420;2022-12-07T04:24:58;101960.44;;;2.48;94.68
72061;BME280;59925;52.136;5.420;2022-12-07T04:27:24;101963.91;;;2.48;94.97
72061;BME280;59925;52.136;5.420;2022-12-07T04:29:50;101959.78;;;2.45;95.14
72061;BME280;59925;52.136;5.420;2022-12-07T04:32:17;101964.91;;;2.47;95.41
72061;BME280;59925;52.136;5.420;2022-12-07T04:34:43;101968.56;;;2.46;95.00
72061;BME280;59925;52.136;5.420;2022-12-07T04:37:09;101966.50;;;2.41;94.97
72061;BME280;59925;52.136;5.420;2022-12-07T04:39:36;101963.56;;;2.36;94.51
72061;BME280;59925;52.136;5.420;2022-12-07T04:42:03;101950.53;;;2.35;94.95
72061;BME280;59925;52.136;5.420;2022-12-07T04:44:30;101958.28;;;2.36;95.13
72061;BME280;59925;52.136;5.420;2022-12-07T04:46:56;101962.75;;;2.36;94.84
72061;BME280;59925;52.136;5.420;2022-12-07T04:49:24;101962.75;;;2.36;94.87
72061;BME280;59925;52.136;5.420;2022-12-07T04:51:51;101968.50;;;2.39;95.01
72061;BME280;59925;52.136;5.420;2022-12-07T04:54:17;101961.63;;;2.45;95.11
72061;BME280;59925;52.136;5.420;2022-12-07T04:56:44;101955.78;;;2.50;95.38
72061;BME280;59925;52.136;5.420;2022-12-07T04:59:11;101954.41;;;2.54;94.99
72061;BME280;59925;52.136;5.420;2022-12-07T05:01:38;101951.19;;;2.58;95.06
72061;BME280;59925;52.136;5.420;2022-12-07T05:04:05;101947.09;;;2.56;94.99
72061;BME280;59925;52.136;5.420;2022-12-07T05:06:32;101952.38;;;2.56;95.32
72061;BME280;59925;52.136;5.420;2022-12-07T05:08:58;101942.97;;;2.53;95.15
72061;BME280;59925;52.136;5.420;2022-12-07T05:11:25;101941.72;;;2.49;95.22
72061;BME280;59925;52.136;5.420;2022-12-07T05:16:35;101947.31;;;2.39;95.21
72061;BME280;59925;52.136;5.420;2022-12-07T05:19:02;101946.25;;;2.34;94.79
72061;BME280;59925;52.136;5.420;2022-12-07T05:21:29;101948.97;;;2.25;94.64
72061;BME280;59925;52.136;5.420;2022-12-07T05:23:55;101947.91;;;2.20;94.43
72061;BME280;59925;52.136;5.420;2022-12-07T05:26:22;101948.47;;;2.15;94.18
72061;BME280;59925;52.136;5.420;2022-12-07T05:28:52;101948.22;;;2.10;94.46
72061;BME280;59925;52.136;5.420;2022-12-07T05:31:19;101946.09;;;2.05;94.22
72061;BME280;59925;52.136;5.420;2022-12-07T05:33:46;101945.50;;;2.03;94.40
72061;BME280;59925;52.136;5.420;2022-12-07T05:36:13;101949.31;;;2.01;94.51
72061;BME280;59925;52.136;5.420;2022-12-07T05:38:39;101943.41;;;1.98;94.50
72061;BME280;59925;52.136;5.420;2022-12-07T05:41:07;101938.84;;;1.92;94.27
72061;BME280;59925;52.136;5.420;2022-12-07T05:43:34;101939.19;;;1.89;94.24
72061;BME280;59925;52.136;5.420;2022-12-07T05:46:00;101944.84;;;1.86;94.48
72061;BME280;59925;52.136;5.420;2022-12-07T05:48:26;101957.63;;;1.82;94.17
72061;BME280;59925;52.136;5.420;2022-12-07T05:50:53;101953.16;;;1.83;94.26
72061;BME280;59925;52.136;5.420;2022-12-07T05:53:19;101951.53;;;1.82;94.59
72061;BME280;59925;52.136;5.420;2022-12-07T05:55:48;101949.44;;;1.77;94.28
72061;BME280;59925;52.136;5.420;2022-12-07T05:58:15;101950.06;;;1.79;94.55
72061;BME280;59925;52.136;5.420;2022-12-07T06:01:00;101948.25;;;1.80;94.20
72061;BME280;59925;52.136;5.420;2022-12-07T06:03:26;101956.38;;;1.78;94.40
72061;BME280;59925;52.136;5.420;2022-12-07T06:05:53;101952.69;;;1.79;94.38
72061;BME280;59925;52.136;5.420;2022-12-07T06:08:20;101956.19;;;1.80;94.43
72061;BME280;59925;52.136;5.420;2022-12-07T06:10:47;101949.06;;;1.80;94.52
72061;BME280;59925;52.136;5.420;2022-12-07T06:13:34;101954.53;;;1.79;94.38
72061;BME280;59925;52.136;5.420;2022-12-07T06:16:00;101952.88;;;1.78;94.26
72061;BME280;59925;52.136;5.420;2022-12-07T06:18:27;101953.09;;;1.76;94.19
72061;BME280;59925;52.136;5.420;2022-12-07T06:20:53;101958.53;;;1.75;94.29
72061;BME280;59925;52.136;5.420;2022-12-07T06:23:20;101955.09;;;1.74;94.44
72061;BME280;59925;52.136;5.420;2022-12-07T06:25:46;101958.38;;;1.76;94.68
72061;BME280;59925;52.136;5.420;2022-12-07T06:28:12;101959.19;;;1.77;94.29
72061;BME280;59925;52.136;5.420;2022-12-07T06:30:39;101959.81;;;1.79;94.38
72061;BME280;59925;52.136;5.420;2022-12-07T06:33:05;101957.97;;;1.79;94.80
72061;BME280;59925;52.136;5.420;2022-12-07T06:35:33;101960.63;;;1.79;94.55
72061;BME280;59925;52.136;5.420;2022-12-07T06:37:59;101958.19;;;1.78;94.74
72061;BME280;59925;52.136;5.420;2022-12-07T06:40:26;101955.34;;;1.79;94.56
72061;BME280;59925;52.136;5.420;2022-12-07T06:42:52;101960.63;;;1.79;94.74
72061;BME280;59925;52.136;5.420;2022-12-07T06:45:18;101964.75;;;1.82;94.83
72061;BME280;59925;52.136;5.420;2022-12-07T06:47:46;101957.63;;;1.82;94.86
72061;BME280;59925;52.136;5.420;2022-12-07T06:50:12;101961.09;;;1.83;94.66
72061;BME280;59925;52.136;5.420;2022-12-07T06:52:39;101955.34;;;1.79;95.08
72061;BME280;59925;52.136;5.420;2022-12-07T06:55:06;101959.19;;;1.77;94.99
72061;BME280;59925;52.136;5.420;2022-12-07T06:57:32;101964.81;;;1.74;94.95
72061;BME280;59925;52.136;5.420;2022-12-07T06:59:58;101959.44;;;1.67;94.67
72061;BME280;59925;52.136;5.420;2022-12-07T07:02:25;101953.25;;;1.60;94.52
72061;BME280;59925;52.136;5.420;2022-12-07T07:04:52;101960.72;;;1.56;94.43
72061;BME280;59925;52.136;5.420;2022-12-07T07:07:18;101949.69;;;1.52;94.99
72061;BME280;59925;52.136;5.420;2022-12-07T07:09:45;101960.44;;;1.51;94.19
72061;BME280;59925;52.136;5.420;2022-12-07T07:12:11;101963.63;;;1.46;94.38
72061;BME280;59925;52.136;5.420;2022-12-07T07:14:37;101960.16;;;1.46;94.71
72061;BME280;59925;52.136;5.420;2022-12-07T07:17:04;101956.91;;;1.44;94.56
72061;BME280;59925;52.136;5.420;2022-12-07T07:19:30;101960.69;;;1.41;94.57
72061;BME280;59925;52.136;5.420;2022-12-07T07:21:57;101959.91;;;1.41;94.30
72061;BME280;59925;52.136;5.420;2022-12-07T07:24:23;101962.09;;;1.37;94.60
72061;BME280;59925;52.136;5.420;2022-12-07T07:26:49;101960.97;;;1.31;94.59
72061;BME280;59925;52.136;5.420;2022-12-07T07:29:16;101961.13;;;1.30;94.56
72061;BME280;59925;52.136;5.420;2022-12-07T07:31:42;101959.50;;;1.29;94.60
72061;BME280;59925;52.136;5.420;2022-12-07T07:34:09;101960.34;;;1.29;94.68
72061;BME280;59925;52.136;5.420;2022-12-07T07:36:35;101956.06;;;1.28;94.74
72061;BME280;59925;52.136;5.420;2022-12-07T07:39:02;101961.34;;;1.28;94.50
72061;BME280;59925;52.136;5.420;2022-12-07T07:41:28;101956.06;;;1.28;94.82
72061;BME280;59925;52.136;5.420;2022-12-07T07:43:54;101958.69;;;1.28;94.73
72061;BME280;59925;52.136;5.420;2022-12-07T07:46:21;101962.34;;;1.27;94.44
72061;BME280;59925;52.136;5.420;2022-12-07T07:48:47;101962.53;;;1.26;94.59
72061;BME280;59925;52.136;5.420;2022-12-07T07:51:14;101958.25;;;1.25;94.55
72061;BME280;59925;52.136;5.420;2022-12-07T07:53:40;101967.97;;;1.24;95.00
72061;BME280;59925;52.136;5.420;2022-12-07T07:56:07;101962.88;;;1.22;94.67
72061;BME280;59925;52.136;5.420;2022-12-07T07:58:33;101963.69;;;1.23;94.49
72061;BME280;59925;52.136;5.420;2022-12-07T08:01:04;101970.59;;;1.24;94.92
72061;BME280;59925;52.136;5.420;2022-12-07T08:03:31;101969.63;;;1.25;94.98
72061;BME280;59925;52.136;5.420;2022-12-07T08:05:58;101970.44;;;1.26;95.11
72061;BME280;59925;52.136;5.420;2022-12-07T08:08:24;101977.34;;;1.27;94.86
72061;BME280;59925;52.136;5.420;2022-12-07T08:10:51;101977.34;;;1.27;94.93
72061;BME280;59925;52.136;5.420;2022-12-07T08:13:17;101974.91;;;1.25;94.95
72061;BME280;59925;52.136;5.420;2022-12-07T08:15:45;101977.88;;;1.22;94.93
72061;BME280;59925;52.136;5.420;2022-12-07T08:18:13;101981.53;;;1.21;94.38
72061;BME280;59925;52.136;5.420;2022-12-07T08:20:41;101979.19;;;1.26;94.73
72061;BME280;59925;52.136;5.420;2022-12-07T08:23:08;101989.41;;;1.29;94.88
72061;BME280;59925;52.136;5.420;2022-12-07T08:25:35;101987.31;;;1.40;94.98
72061;BME280;59925;52.136;5.420;2022-12-07T08:28:02;101988.97;;;1.56;95.27
72061;BME280;59925;52.136;5.420;2022-12-07T08:30:29;101983.81;;;1.77;95.47
72061;BME280;59925;52.136;5.420;2022-12-07T08:32:56;101979.31;;;1.93;95.21
72061;BME280;59925;52.136;5.420;2022-12-07T08:35:23;101969.09;;;2.05;95.53
72061;BME280;59925;52.136;5.420;2022-12-07T08:37:50;101968.63;;;2.16;95.25
72061;BME280;59925;52.136;5.420;2022-12-07T08:40:16;101975.59;;;2.39;95.06
72061;BME280;59925;52.136;5.420;2022-12-07T08:42:49;101977.66;;;2.58;95.67
72061;BME280;59925;52.136;5.420;2022-12-07T08:45:17;101977.53;;;2.67;94.82
72061;BME280;59925;52.136;5.420;2022-12-07T08:48:00;101975.88;;;2.66;94.92
72061;BME280;59925;52.136;5.420;2022-12-07T08:50:28;101980.00;;;2.68;95.30
72061;BME280;59925;52.136;5.420;2022-12-07T08:52:56;101975.59;;;2.75;94.68
72061;BME280;59925;52.136;5.420;2022-12-07T08:55:24;101967.53;;;2.84;94.86
72061;BME280;59925;52.136;5.420;2022-12-07T08:57:51;101968.78;;;2.88;94.46
72061;BME280;59925;52.136;5.420;2022-12-07T09:00:18;101971.03;;;2.91;94.58
72061;BME280;59925;52.136;5.420;2022-12-07T09:02:45;101975.78;;;2.96;94.39
72061;BME280;59925;52.136;5.420;2022-12-07T09:05:12;101975.59;;;2.97;94.34
72061;BME280;59925;52.136;5.420;2022-12-07T09:07:45;101976.41;;;2.98;94.18
72061;BME280;59925;52.136;5.420;2022-12-07T09:10:12;101977.22;;;2.98;94.28
72061;BME280;59925;52.136;5.420;2022-12-07T09:12:38;101971.91;;;2.98;93.78
72061;BME280;59925;52.136;5.420;2022-12-07T09:15:05;101976.03;;;3.01;94.10
72061;BME280;59925;52.136;5.420;2022-12-07T09:17:33;101972.59;;;3.07;93.87
72061;BME280;59925;52.136;5.420;2022-12-07T09:20:00;101968.56;;;3.11;93.80
72061;BME280;59925;52.136;5.420;2022-12-07T09:22:30;101973.72;;;3.19;94.27
72061;BME280;59925;52.136;5.420;2022-12-07T09:24:58;101971.81;;;3.35;93.63
72061;BME280;59925;52.136;5.420;2022-12-07T09:27:25;101977.06;;;3.57;94.43
72061;BME280;59925;52.136;5.420;2022-12-07T09:29:52;101986.72;;;3.71;94.22
72061;BME280;59925;52.136;5.420;2022-12-07T09:32:19;101987.81;;;3.77;94.15
72061;BME280;59925;52.136;5.420;2022-12-07T09:34:45;101987.22;;;3.81;93.84
72061;BME280;59925;52.136;5.420;2022-12-07T09:37:12;101985.19;;;3.83;93.28
72061;BME280;59925;52.136;5.420;2022-12-07T09:39:38;101978.25;;;3.82;92.91
72061;BME280;59925;52.136;5.420;2022-12-07T09:44:51;101981.94;;;3.88;93.11
72061;BME280;59925;52.136;5.420;2022-12-07T09:47:17;101973.00;;;3.96;93.31
72061;BME280;59925;52.136;5.420;2022-12-07T09:49:43;101970.97;;;4.05;92.84
72061;BME280;59925;52.136;5.420;2022-12-07T09:52:25;101970.00;;;4.12;92.61
72061;BME280;59925;52.136;5.420;2022-12-07T09:54:53;101978.41;;;4.16;92.10
72061;BME280;59925;52.136;5.420;2022-12-07T09:57:37;101970.63;;;4.21;91.38
72061;BME280;59925;52.136;5.420;2022-12-07T10:00:10;101962.88;;;4.20;91.15
72061;BME280;59925;52.136;5.420;2022-12-07T10:02:41;101963.50;;;4.22;91.60
72061;BME280;59925;52.136;5.420;2022-12-07T10:05:15;101959.41;;;4.26;91.39
72061;BME280;59925;52.136;5.420;2022-12-07T10:07:49;101961.06;;;4.27;91.10
72061;BME280;59925;52.136;5.420;2022-12-07T10:10:27;101956.59;;;4.27;91.04
72061;BME280;59925;52.136;5.420;2022-12-07T10:13:02;101958.41;;;4.27;90.98
72061;BME280;59925;52.136;5.420;2022-12-07T10:15:54;101956.75;;;4.26;90.52
72061;BME280;59925;52.136;5.420;2022-12-07T10:18:36;101947.66;;;4.42;90.55
72061;BME280;59925;52.136;5.420;2022-12-07T10:21:13;101954.63;;;4.70;90.81
72061;BME280;59925;52.136;5.420;2022-12-07T10:26:33;101940.53;;;5.23;90.06
72061;BME280;59925;52.136;5.420;2022-12-07T10:29:13;101933.59;;;5.22;90.04
72061;BME280;59925;52.136;5.420;2022-12-07T10:31:41;101927.25;;;5.10;89.75
72061;BME280;59925;52.136;5.420;2022-12-07T10:34:22;101932.34;;;4.98;89.22
72061;BME280;59925;52.136;5.420;2022-12-07T10:36:52;101931.56;;;4.90;88.80
72061;BME280;59925;52.136;5.420;2022-12-07T10:39:21;101931.16;;;4.87;88.88
72061;BME280;59925;52.136;5.420;2022-12-07T10:41:58;101931.97;;;4.94;89.39
72061;BME280;59925;52.136;5.420;2022-12-07T10:44:28;101927.88;;;5.25;89.09
72061;BME280;59925;52.136;5.420;2022-12-07T10:47:06;101923.94;;;5.48;89.01
72061;BME280;59925;52.136;5.420;2022-12-07T10:49:55;101918.13;;;5.71;88.89
72061;BME280;59925;52.136;5.420;2022-12-07T10:52:32;101911.94;;;5.84;88.41
72061;BME280;59925;52.136;5.420;2022-12-07T10:55:16;101913.38;;;5.87;87.71
72061;BME280;59925;52.136;5.420;2022-12-07T10:58:02;101915.28;;;5.66;87.00
72061;BME280;59925;52.136;5.420;2022-12-07T11:03:51;101909.97;;;5.59;87.29
72061;BME280;59925;52.136;5.420;2022-12-07T11:06:34;101912.97;;;5.83;87.23
72061;BME280;59925;52.136;5.420;2022-12-07T11:09:36;101908.41;;;6.04;86.97
72061;BME280;59925;52.136;5.420;2022-12-07T11:12:40;101910.63;;;6.13;86.25
72061;BME280;59925;52.136;5.420;2022-12-07T11:20:44;101895.22;;;6.16;85.72
72061;BME280;59925;52.136;5.420;2022-12-07T11:23:46;101898.19;;;5.94;85.60
72061;BME280;59925;52.136;5.420;2022-12-07T11:26:22;101889.66;;;5.78;85.53
72061;BME280;59925;52.136;5.420;2022-12-07T11:37:17;101888.34;;;5.35;86.10
72061;BME280;59925;52.136;5.420;2022-12-07T11:42:21;101881.25;;;5.81;86.56
72061;BME280;59925;52.136;5.420;2022-12-07T11:45:15;101869.81;;;6.20;86.18
72061;BME280;59925;52.136;5.420;2022-12-07T11:47:47;101875.00;;;6.40;85.54
72061;BME280;59925;52.136;5.420;2022-12-07T11:50:24;101866.56;;;6.50;84.97
72061;BME280;59925;52.136;5.420;2022-12-07T11:52:58;101863.00;;;6.56;84.39
72061;BME280;59925;52.136;5.420;2022-12-07T11:58:27;101867.44;;;6.94;83.49
72061;BME280;59925;52.136;5.420;2022-12-07T12:01:48;101859.66;;;7.11;83.06
72061;BME280;59925;52.136;5.420;2022-12-07T12:09:22;101852.53;;;7.61;82.98
72061;BME280;59925;52.136;5.420;2022-12-07T12:15:30;101838.94;;;7.81;81.47
72061;BME280;59925;52.136;5.420;2022-12-07T12:21:10;101834.72;;;7.73;80.21
72061;BME280;59925;52.136;5.420;2022-12-07T12:23:46;101835.94;;;7.59;79.44
72061;BME280;59925;52.136;5.420;2022-12-07T12:26:26;101837.47;;;7.66;79.45
72061;BME280;59925;52.136;5.420;2022-12-07T12:28:54;101838.00;;;7.75;79.36
72061;BME280;59925;52.136;5.420;2022-12-07T12:33:50;101830.16;;;7.92;78.99
72061;BME280;59925;52.136;5.420;2022-12-07T12:36:22;101824.47;;;8.01;78.67
72061;BME280;59925;52.136;5.420;2022-12-07T12:46:53;101814.78;;;8.18;77.48
72061;BME280;59925;52.136;5.420;2022-12-07T12:54:30;101822.00;;;8.29;78.03
72061;BME280;59925;52.136;5.420;2022-12-07T12:57:31;101815.41;;;7.90;76.90
72061;BME280;59925;52.136;5.420;2022-12-07T12:59:59;101816.22;;;7.60;76.97
72061;BME280;59925;52.136;5.420;2022-12-07T13:02:30;101817.13;;;7.35;77.05
72061;BME280;59925;52.136;5.420;2022-12-07T13:13:44;101795.16;;;6.58;78.89
72061;BME280;59925;52.136;5.420;2022-12-07T13:18:41;101800.38;;;6.47;79.49
72061;BME280;59925;52.136;5.420;2022-12-07T13:26:36;101781.78;;;6.15;80.72
72061;BME280;59925;52.136;5.420;2022-12-07T13:31:55;101781.44;;;5.97;80.80
72061;BME280;59925;52.136;5.420;2022-12-07T13:37:18;101768.78;;;6.00;81.42
72061;BME280;59925;52.136;5.420;2022-12-07T13:39:50;101762.81;;;5.97;81.75
72061;BME280;59925;52.136;5.420;2022-12-07T13:42:34;101768.84;;;5.86;81.67
72061;BME280;59925;52.136;5.420;2022-12-07T13:45:21;101758.59;;;5.83;81.38
72061;BME280;59925;52.136;5.420;2022-12-07T13:48:15;101757.38;;;5.86;81.77
72061;BME280;59925;52.136;5.420;2022-12-07T13:50:42;101756.19;;;5.81;82.12
72061;BME280;59925;52.136;5.420;2022-12-07T13:53:13;101752.09;;;5.79;81.93
72061;BME280;59925;52.136;5.420;2022-12-07T13:55:45;101753.50;;;5.81;82.52
72061;BME280;59925;52.136;5.420;2022-12-07T13:58:19;101752.06;;;5.86;82.80
72061;BME280;59925;52.136;5.420;2022-12-07T14:00:46;101750.22;;;5.86;83.01
72061;BME280;59925;52.136;5.420;2022-12-07T14:05:42;101745.09;;;5.85;82.95
72061;BME280;59925;52.136;5.420;2022-12-07T14:10:37;101745.75;;;5.80;82.92
72061;BME280;59925;52.136;5.420;2022-12-07T14:15:53;101736.28;;;5.84;83.69
72061;BME280;59925;52.136;5.420;2022-12-07T14:18:28;101737.94;;;5.85;83.56
72061;BME280;59925;52.136;5.420;2022-12-07T14:21:06;101733.63;;;5.84;83.21
72061;BME280;59925;52.136;5.420;2022-12-07T14:23:40;101732.00;;;5.83;83.19
72061;BME280;59925;52.136;5.420;2022-12-07T14:28:43;101723.81;;;5.85;83.27
72061;BME280;59925;52.136;5.420;2022-12-07T14:31:15;101724.63;;;5.85;83.17
72061;BME280;59925;52.136;5.420;2022-12-07T14:33:59;101721.53;;;5.88;83.32
72061;BME280;59925;52.136;5.420;2022-12-07T14:36:25;101723.00;;;5.84;83.47
72061;BME280;59925;52.136;5.420;2022-12-07T14:38:51;101720.56;;;5.82;83.40
72061;BME280;59925;52.136;5.420;2022-12-07T14:41:22;101719.34;;;5.78;83.57
72061;BME280;59925;52.136;5.420;2022-12-07T14:44:13;101717.72;;;5.77;83.66
72061;BME280;59925;52.136;5.420;2022-12-07T14:46:51;101710.38;;;5.73;83.94
72061;BME280;59925;52.136;5.420;2022-12-07T14:49:37;101707.56;;;5.67;83.82
72061;BME280;59925;52.136;5.420;2022-12-07T14:52:05;101706.78;;;5.60;83.90
72061;BME280;59925;52.136;5.420;2022-12-07T14:54:54;101710.47;;;5.59;83.88
72061;BME280;59925;52.136;5.420;2022-12-07T14:57:20;101709.06;;;5.57;83.84
72061;BME280;59925;52.136;5.420;2022-12-07T14:59:47;101717.47;;;5.53;83.82
72061;BME280;59925;52.136;5.420;2022-12-07T15:02:15;101713.81;;;5.48;83.66
72061;BME280;59925;52.136;5.420;2022-12-07T15:04:42;101710.16;;;5.42;83.77
72061;BME280;59925;52.136;5.420;2022-12-07T15:07:15;101714.25;;;5.38;83.83
72061;BME280;59925;52.136;5.420;2022-12-07T15:09:43;101708.16;;;5.37;83.98
72061;BME280;59925;52.136;5.420;2022-12-07T15:12:10;101718.59;;;5.32;84.16